Time;durP1;ratioP1;P1;durP2;ratioP2;P2;SDS_P1;SDS_P2;PMS_P1;PMS_P2;Temp;Humidity;BMP_temperature;BMP_pressure;BME280_temperature;BME280_humidity;BME280_pressure;Samples;Min_cycle;Max_cycle;Signal;HPM_P1;HPM_P2
2022/02/07 00:01:57;;;;;;;0.60;0.40;;;;;;;3.72;86.09;99269.31;5050854;28;20025;-51
2022/02/07 00:04:17;;;;;;;0.73;0.40;;;;;;;3.68;86.38;99278.81;5042758;28;20045;-50
2022/02/07 00:06:44;;;;;;;0.40;0.40;;;;;;;3.76;85.83;99285.53;5040882;28;20040;-51
2022/02/07 00:09:10;;;;;;;1.35;0.40;;;;;;;3.67;86.46;99303.69;5048726;28;20028;-49
2022/02/07 00:11:35;;;;;;;0.60;0.40;;;;;;;3.73;86.12;99302.72;5047700;28;20020;-53
2022/02/07 00:14:01;;;;;;;1.60;0.60;;;;;;;3.78;86.05;99310.78;5048342;28;20025;-50
2022/02/07 00:16:27;;;;;;;2.40;0.73;;;;;;;3.79;86.18;99317.69;5041199;28;20021;-49
2022/02/07 00:18:52;;;;;;;1.52;0.60;;;;;;;3.76;86.26;99315.47;5041387;28;20067;-52
2022/02/07 00:21:18;;;;;;;4.35;0.45;;;;;;;3.79;86.23;99325.63;5038804;28;20052;-48
2022/02/07 00:23:43;;;;;;;0.57;0.40;;;;;;;3.78;86.23;99329.31;5039998;28;20033;-51
2022/02/07 00:26:10;;;;;;;1.33;0.60;;;;;;;3.74;86.38;99322.06;5040547;28;20031;-49
2022/02/07 00:28:36;;;;;;;1.38;0.45;;;;;;;3.77;86.12;99318.94;5050506;28;20433;-51
2022/02/07 00:31:01;;;;;;;2.13;0.30;;;;;;;3.73;86.38;99317.81;5040088;28;20037;-49
2022/02/07 00:33:27;;;;;;;1.20;0.40;;;;;;;3.77;85.56;99322.41;5041468;28;20059;-51
2022/02/07 00:35:52;;;;;;;0.95;0.35;;;;;;;3.70;86.58;99321.75;5037718;28;20025;-50
2022/02/07 00:38:20;;;;;;;1.15;0.73;;;;;;;3.78;86.05;99324.03;5042697;28;20085;-52
2022/02/07 00:41:00;;;;;;;0.30;0.30;;;;;;;3.80;85.95;99334.38;5041905;28;20474;-53
2022/02/07 00:43:30;;;;;;;0.30;0.22;;;;;;;3.78;86.25;99347.06;5036553;28;20032;-49
2022/02/07 00:46:07;;;;;;;1.00;0.30;;;;;;;3.83;85.74;99355.09;5042680;28;20115;-49
2022/02/07 00:48:32;;;;;;;0.55;0.40;;;;;;;3.78;86.56;99352.38;5040573;28;20025;-51
2022/02/07 00:50:58;;;;;;;0.90;0.30;;;;;;;3.74;87.37;99362.59;5048619;28;20024;-50
2022/02/07 00:53:25;;;;;;;1.30;0.40;;;;;;;3.71;86.93;99368.38;5042315;28;20389;-52
2022/02/07 00:55:52;;;;;;;0.40;0.40;;;;;;;3.66;87.07;99370.94;5039474;28;20044;-49
2022/02/07 00:58:17;;;;;;;1.67;0.50;;;;;;;3.62;86.98;99375.91;5039367;28;20066;-53
2022/02/07 01:00:43;;;;;;;1.55;0.43;;;;;;;3.57;87.27;99377.66;5044409;28;20025;-49
2022/02/07 01:03:08;;;;;;;3.17;0.57;;;;;;;3.52;87.58;99381.00;5043601;28;20114;-49
2022/02/07 01:05:34;;;;;;;1.67;0.40;;;;;;;3.53;87.49;99385.25;5037228;28;20047;-50
2022/02/07 01:08:02;;;;;;;0.30;0.30;;;;;;;3.53;86.62;99392.41;5047158;28;20094;-50
2022/02/07 01:10:38;;;;;;;2.42;0.45;;;;;;;3.54;86.82;99401.94;5035359;28;20025;-48
2022/02/07 01:18:38;;;;;;;0.40;0.20;;;;;;;3.36;86.71;99413.50;5039491;28;20040;-49
2022/02/07 01:53:39;;;;;;;0.65;0.30;;;;;;;2.86;86.96;99487.28;5034065;28;20130;-48
2022/02/07 01:55:55;;;;;;;3.20;1.67;;;;;;;2.82;87.36;99497.50;5034212;28;20112;-50
2022/02/07 01:58:22;;;;;;;0.20;0.20;;;;;;;2.87;86.82;99504.75;5038942;28;20074;-50
2022/02/07 02:00:47;;;;;;;0.17;0.17;;;;;;;2.76;86.81;99508.19;5037706;28;20033;-50
2022/02/07 02:03:13;;;;;;;0.90;0.38;;;;;;;2.74;87.28;99513.72;5036202;28;20531;-50
2022/02/07 02:05:39;;;;;;;0.40;0.40;;;;;;;2.70;87.12;99510.72;5036502;28;20025;-49
2022/02/07 02:08:06;;;;;;;0.28;0.20;;;;;;;2.81;86.92;99522.34;5042945;28;20021;-49
2022/02/07 02:10:34;;;;;;;0.95;0.30;;;;;;;2.76;87.03;99522.22;5040061;28;20030;-48
2022/02/07 02:13:09;;;;;;;0.55;0.20;;;;;;;2.76;87.08;99524.06;5039040;28;20032;-52
2022/02/07 02:37:09;;;;;;;0.60;0.47;;;;;;;2.80;87.06;99599.28;5043338;28;20063;-49
2022/02/07 02:47:48;;;;;;;1.40;0.47;;;;;;;2.87;86.31;99626.44;5041556;28;20039;-51
2022/02/07 02:51:04;;;;;;;3.97;0.40;;;;;;;2.94;85.92;99635.13;5041251;28;20427;-48
2022/02/07 02:53:06;;;;;;;1.13;0.30;;;;;;;2.88;86.11;99638.66;5048576;28;20499;-51
2022/02/07 02:55:33;;;;;;;2.63;0.50;;;;;;;2.81;86.24;99648.50;5037395;28;20028;-51
2022/02/07 02:57:59;;;;;;;2.65;0.52;;;;;;;2.73;86.55;99652.28;5043365;28;20034;-50
2022/02/07 03:00:29;;;;;;;1.08;0.60;;;;;;;2.83;86.20;99651.75;5038664;28;20036;-49
2022/02/07 03:02:54;;;;;;;0.75;0.60;;;;;;;2.73;86.69;99658.38;5040668;28;20028;-48
2022/02/07 03:05:20;;;;;;;0.47;0.40;;;;;;;2.68;87.10;99681.22;5059280;28;20032;-50
2022/02/07 03:07:46;;;;;;;2.17;0.45;;;;;;;2.72;87.23;99687.72;5044845;28;20036;-49
2022/02/07 03:10:26;;;;;;;1.23;0.68;;;;;;;2.81;86.93;99696.13;5047715;28;20119;-49
2022/02/07 03:18:17;;;;;;;0.70;0.30;;;;;;;2.85;86.42;99715.81;5048007;28;20398;-50
2022/02/07 03:20:43;;;;;;;1.08;0.35;;;;;;;2.88;86.22;99739.19;5039581;28;20021;-49
2022/02/07 03:23:08;;;;;;;3.22;0.55;;;;;;;2.90;85.81;99727.38;5043171;28;20479;-51
2022/02/07 03:25:34;;;;;;;0.43;0.30;;;;;;;2.94;85.75;99733.81;5039685;28;20290;-50
2022/02/07 03:28:00;;;;;;;1.33;0.40;;;;;;;2.97;85.41;99740.50;5050138;28;20037;-49
2022/02/07 03:30:26;;;;;;;1.77;0.40;;;;;;;3.02;85.33;99765.25;5044104;28;20498;-49
2022/02/07 03:32:51;;;;;;;2.90;0.47;;;;;;;3.06;84.72;99772.78;5048273;28;20040;-52
2022/02/07 03:35:19;;;;;;;2.42;0.50;;;;;;;3.11;84.77;99776.34;5043241;28;20060;-50
2022/02/07 03:37:44;;;;;;;1.33;0.30;;;;;;;3.18;84.40;99777.06;5048211;28;20020;-51
2022/02/07 03:40:10;;;;;;;0.85;0.50;;;;;;;3.18;84.45;99789.50;5037457;28;20108;-53
2022/02/07 03:42:36;;;;;;;0.55;0.55;;;;;;;3.11;84.67;99797.53;5038818;28;20035;-49
2022/02/07 03:45:01;;;;;;;1.20;0.60;;;;;;;3.03;84.89;99795.16;5048001;28;20463;-52
2022/02/07 03:47:27;;;;;;;2.90;0.75;;;;;;;2.96;84.90;99821.72;5045110;28;20383;-51
2022/02/07 03:49:52;;;;;;;1.45;0.60;;;;;;;2.92;84.91;99817.91;5044535;28;20461;-50
2022/02/07 03:52:18;;;;;;;1.52;0.43;;;;;;;2.92;84.97;99830.31;5037991;28;20033;-51
2022/02/07 03:54:44;;;;;;;1.58;0.47;;;;;;;2.92;84.80;99832.97;5044936;28;20403;-51
2022/02/07 03:57:09;;;;;;;1.33;0.60;;;;;;;2.91;84.63;99850.69;5036943;28;20031;-51
2022/02/07 03:59:35;;;;;;;0.40;0.40;;;;;;;2.88;84.55;99850.31;5044905;28;20048;-49
2022/02/07 04:02:00;;;;;;;4.65;0.70;;;;;;;2.85;84.50;99861.31;5041222;28;20028;-53
2022/02/07 04:04:26;;;;;;;1.70;0.50;;;;;;;2.89;84.58;99879.22;5043390;28;20030;-52
2022/02/07 04:06:52;;;;;;;2.92;0.47;;;;;;;2.98;84.17;99883.16;5042474;28;20388;-49
2022/02/07 04:09:21;;;;;;;2.58;0.60;;;;;;;2.98;83.71;99891.09;5041256;28;20017;-49
2022/02/07 04:11:53;;;;;;;2.97;0.50;;;;;;;3.05;83.49;99901.63;5044084;28;20270;-49
2022/02/07 04:14:22;;;;;;;3.53;0.65;;;;;;;3.12;83.21;99914.78;5041285;28;20032;-48
2022/02/07 04:16:48;;;;;;;2.10;0.50;;;;;;;3.13;82.90;99908.47;5035529;28;20055;-50
2022/02/07 04:19:22;;;;;;;1.60;0.45;;;;;;;3.11;82.43;99919.28;5049833;28;20029;-52
2022/02/07 04:21:50;;;;;;;1.85;0.52;;;;;;;3.08;82.14;99929.50;5038625;28;20021;-49
2022/02/07 04:24:17;;;;;;;0.40;0.40;;;;;;;3.04;81.82;99937.03;5042070;28;20024;-52
2022/02/07 04:26:43;;;;;;;2.63;0.55;;;;;;;3.07;82.09;99939.28;5042775;28;20395;-48
2022/02/07 04:29:09;;;;;;;1.42;0.60;;;;;;;3.09;81.98;99941.72;5038895;28;20036;-52
2022/02/07 04:31:34;;;;;;;1.92;0.60;;;;;;;3.10;82.06;99945.97;5041443;28;20421;-48
2022/02/07 04:34:00;;;;;;;3.83;0.40;;;;;;;3.08;81.78;99951.47;5047190;28;20032;-49
2022/02/07 04:36:26;;;;;;;1.05;0.50;;;;;;;3.09;81.64;99960.22;5039341;28;20124;-50
2022/02/07 04:38:51;;;;;;;0.88;0.35;;;;;;;3.05;81.46;99967.78;5044122;28;20026;-50
2022/02/07 04:41:17;;;;;;;0.70;0.50;;;;;;;3.10;81.73;99973.25;5040083;28;20150;-49
2022/02/07 04:43:53;;;;;;;2.85;1.00;;;;;;;3.11;81.68;99982.81;5040011;28;20479;-48
2022/02/07 04:46:38;;;;;;;2.45;0.50;;;;;;;3.02;81.69;99989.38;5044770;28;20028;-51
2022/02/07 04:49:18;;;;;;;3.55;0.50;;;;;;;3.08;81.85;99995.66;5044812;28;20036;-51
2022/02/07 04:51:54;;;;;;;3.60;0.60;;;;;;;3.07;81.42;100009.94;5034094;28;20071;-49
2022/02/07 05:03:04;;;;;;;2.15;0.50;;;;;;;3.17;81.05;100032.22;5036901;28;20056;-50
2022/02/07 05:15:46;;;;;;;4.18;0.90;;;;;;;3.16;81.29;100057.06;5038123;28;20602;-50
2022/02/07 05:18:12;;;;;;;2.40;0.70;;;;;;;3.22;81.29;100064.13;5036326;28;20029;-48
2022/02/07 05:20:37;;;;;;;2.17;0.40;;;;;;;3.22;81.20;100073.91;5043404;28;20388;-49
2022/02/07 05:23:03;;;;;;;3.75;0.68;;;;;;;3.14;81.34;100066.25;5036955;28;20059;-50
2022/02/07 05:25:28;;;;;;;2.50;0.70;;;;;;;3.07;81.47;100070.81;5036102;28;20028;-52
2022/02/07 05:27:53;;;;;;;2.17;0.50;;;;;;;2.98;81.62;100094.06;5039414;28;20025;-50
2022/02/07 05:30:19;;;;;;;1.83;0.43;;;;;;;3.00;81.63;100097.28;5038417;28;20025;-53
2022/02/07 05:32:44;;;;;;;3.13;0.60;;;;;;;2.96;81.66;100109.34;5034487;28;20105;-50
2022/02/07 05:35:10;;;;;;;2.17;0.70;;;;;;;2.86;81.63;100107.16;5036721;28;20131;-49
2022/02/07 05:37:36;;;;;;;1.83;0.60;;;;;;;2.69;82.49;100125.38;5034418;28;20521;-50
2022/02/07 05:40:14;;;;;;;1.83;0.80;;;;;;;2.80;82.33;100128.38;5043456;28;20467;-48
2022/02/07 05:42:39;;;;;;;3.63;0.73;;;;;;;2.67;82.23;100140.63;5039410;28;20056;-49
2022/02/07 05:45:07;;;;;;;2.55;0.63;;;;;;;2.71;82.64;100136.56;5034161;28;20029;-50
2022/02/07 05:47:34;;;;;;;1.17;0.55;;;;;;;2.82;82.56;100163.34;5041409;28;20029;-50
2022/02/07 05:50:00;;;;;;;3.67;0.80;;;;;;;2.94;82.16;100161.66;5053346;28;20951;-50
2022/02/07 05:52:26;;;;;;;2.60;1.35;;;;;;;2.95;81.76;100173.88;5040828;28;20070;-49
2022/02/07 05:54:51;;;;;;;4.03;0.60;;;;;;;2.83;81.68;100178.22;5037046;28;20037;-49
2022/02/07 05:57:17;;;;;;;1.98;1.00;;;;;;;2.94;81.51;100182.84;5043458;28;20023;-48
2022/02/07 05:59:42;;;;;;;2.17;0.50;;;;;;;2.97;81.56;100185.88;5042928;28;20107;-49
2022/02/07 06:02:08;;;;;;;6.40;0.57;;;;;;;2.98;81.31;100200.72;5040589;28;20035;-53
2022/02/07 06:04:33;;;;;;;3.90;0.70;;;;;;;2.88;81.39;100208.31;5038403;28;20030;-52
2022/02/07 06:06:59;;;;;;;2.03;0.77;;;;;;;2.88;81.34;100220.75;5039644;28;20036;-49
2022/02/07 06:09:24;;;;;;;2.85;0.50;;;;;;;2.81;81.21;100219.94;5039517;28;20356;-50
2022/02/07 06:11:50;;;;;;;0.57;0.50;;;;;;;2.71;81.38;100237.09;5036210;28;20028;-49
2022/02/07 06:14:16;;;;;;;3.35;0.77;;;;;;;2.73;81.77;100245.63;5041413;28;20024;-49
2022/02/07 06:16:42;;;;;;;2.13;0.73;;;;;;;2.69;81.66;100249.72;5050244;28;20482;-49
2022/02/07 06:19:08;;;;;;;4.10;0.85;;;;;;;2.77;81.90;100253.13;5052290;28;20029;-50
2022/02/07 06:21:34;;;;;;;2.65;0.90;;;;;;;2.73;81.56;100264.13;5047569;28;20025;-50
2022/02/07 06:24:02;;;;;;;7.20;0.73;;;;;;;2.66;81.33;100268.63;5045384;28;20486;-50
2022/02/07 06:26:30;;;;;;;2.42;0.70;;;;;;;2.68;81.51;100279.78;5047792;28;20020;-50
2022/02/07 06:28:57;;;;;;;2.83;0.60;;;;;;;2.65;81.65;100277.56;5052589;28;20095;-50
2022/02/07 06:31:23;;;;;;;1.30;0.52;;;;;;;2.76;81.49;100277.97;5045769;28;20029;-49
2022/02/07 06:33:48;;;;;;;2.58;0.70;;;;;;;2.76;81.37;100288.53;5048141;28;20033;-48
2022/02/07 06:36:14;;;;;;;3.72;0.80;;;;;;;2.82;81.20;100303.56;5047140;28;20082;-50
2022/02/07 06:38:40;;;;;;;6.15;0.57;;;;;;;2.80;80.99;100308.28;5040150;28;20041;-52
2022/02/07 06:41:05;;;;;;;3.00;0.85;;;;;;;2.77;81.18;100313.97;5042311;28;20033;-52
2022/02/07 06:43:31;;;;;;;6.38;0.85;;;;;;;2.76;81.26;100321.09;5045943;28;20067;-50
2022/02/07 06:45:58;;;;;;;1.88;0.70;;;;;;;2.78;81.15;100326.19;5042085;28;20494;-50
2022/02/07 06:48:25;;;;;;;9.48;0.80;;;;;;;2.84;80.88;100338.56;5049994;28;20116;-50
2022/02/07 06:50:50;;;;;;;2.85;0.50;;;;;;;2.86;80.57;100347.94;5044731;28;20437;-50
2022/02/07 06:53:15;;;;;;;7.35;0.77;;;;;;;2.83;80.38;100352.81;5040056;28;20032;-48
2022/02/07 06:55:41;;;;;;;3.63;0.80;;;;;;;2.98;80.42;100366.63;5038946;28;20061;-51
2022/02/07 06:58:06;;;;;;;5.93;0.73;;;;;;;2.99;80.24;100366.44;5044442;28;20029;-50
2022/02/07 07:00:32;;;;;;;2.75;0.70;;;;;;;3.00;79.78;100383.13;5047814;28;20493;-51
2022/02/07 07:02:58;;;;;;;3.78;1.90;;;;;;;3.02;79.94;100389.00;5046862;28;20182;-49
2022/02/07 07:05:24;;;;;;;4.85;0.95;;;;;;;3.09;79.92;100384.53;5049978;28;20116;-49
2022/02/07 07:07:49;;;;;;;4.55;0.98;;;;;;;3.07;79.78;100391.88;5049416;28;20033;-49
2022/02/07 07:10:16;;;;;;;6.60;0.80;;;;;;;3.04;79.57;100393.06;5048622;28;20037;-49
2022/02/07 07:12:48;;;;;;;4.80;0.85;;;;;;;3.13;79.60;100398.97;5046957;28;20083;-48
2022/02/07 07:15:18;;;;;;;2.63;0.88;;;;;;;3.16;79.43;100409.16;5050633;28;20030;-48
2022/02/07 07:17:43;;;;;;;6.00;0.90;;;;;;;3.23;79.26;100404.66;5041209;28;20493;-48
2022/02/07 07:20:11;;;;;;;6.57;1.00;;;;;;;3.24;79.25;100405.47;5048645;28;20056;-50
2022/02/07 07:22:37;;;;;;;3.35;0.75;;;;;;;3.26;79.13;100419.31;5052560;28;20135;-50
2022/02/07 07:25:05;;;;;;;8.13;1.13;;;;;;;3.29;78.90;100430.31;5048412;28;20032;-48
2022/02/07 07:27:37;;;;;;;2.72;0.85;;;;;;;3.30;78.59;100433.75;5049868;28;20116;-49
2022/02/07 07:30:04;;;;;;;3.95;1.10;;;;;;;3.37;78.60;100434.53;5053548;28;20024;-49
2022/02/07 07:32:31;;;;;;;3.78;1.00;;;;;;;3.39;78.82;100440.44;5054571;28;20302;-49
2022/02/07 07:34:57;;;;;;;2.45;1.08;;;;;;;3.39;78.48;100439.63;5048315;28;20028;-49
2022/02/07 07:37:23;;;;;;;5.40;0.80;;;;;;;3.39;78.32;100450.22;5052584;28;20274;-50
2022/02/07 07:39:49;;;;;;;6.47;1.25;;;;;;;3.49;78.41;100458.56;5046925;28;20025;-49
2022/02/07 07:42:15;;;;;;;4.45;0.70;;;;;;;3.52;78.29;100456.31;5051257;28;20040;-48
2022/02/07 07:44:41;;;;;;;7.07;0.93;;;;;;;3.50;78.11;100462.84;5048599;28;20025;-49
2022/02/07 07:47:13;;;;;;;3.85;1.27;;;;;;;3.49;77.99;100455.91;5048348;28;20571;-49
2022/02/07 07:49:59;;;;;;;7.75;1.00;;;;;;;3.47;77.80;100457.97;5047287;28;20486;-50
2022/02/07 07:52:46;;;;;;;3.67;1.20;;;;;;;3.39;77.83;100461.63;5047661;28;20433;-50
2022/02/07 08:03:08;;;;;;;3.72;1.23;;;;;;;3.60;77.58;100502.97;5057401;28;20124;-50
2022/02/07 08:05:52;;;;;;;1.92;0.52;;;;;;;3.60;77.59;100508.25;5050889;28;20024;-48
2022/02/07 08:08:35;;;;;;;9.73;1.25;;;;;;;3.70;77.98;100511.28;5048670;28;20028;-50
2022/02/07 08:11:04;;;;;;;4.82;1.60;;;;;;;3.64;77.39;100512.09;5049868;28;20043;-51
2022/02/07 08:13:32;;;;;;;6.43;1.63;;;;;;;3.74;77.76;100520.41;5053456;28;20115;-50
2022/02/07 08:15:57;;;;;;;8.07;1.20;;;;;;;3.76;77.74;100523.66;5053772;28;20300;-49
2022/02/07 08:18:23;;;;;;;6.20;1.45;;;;;;;3.67;77.76;100522.28;5052525;28;20516;-50
2022/02/07 08:20:49;;;;;;;2.42;0.90;;;;;;;3.76;77.72;100531.63;5055026;28;20036;-51
2022/02/07 08:23:14;;;;;;;3.97;0.95;;;;;;;3.84;77.69;100534.06;5050589;28;20064;-49
2022/02/07 08:25:40;;;;;;;3.78;1.13;;;;;;;3.87;77.74;100535.47;5050406;28;20020;-51
2022/02/07 08:28:06;;;;;;;3.67;0.98;;;;;;;3.93;77.62;100543.38;5053476;28;20108;-52
2022/02/07 08:30:33;;;;;;;4.13;0.80;;;;;;;3.86;77.63;100542.63;5044660;28;20040;-50
2022/02/07 08:33:00;;;;;;;6.18;0.80;;;;;;;3.90;77.57;100549.13;5052147;28;20598;-51
2022/02/07 08:35:26;;;;;;;5.00;1.95;;;;;;;3.93;77.39;100553.19;5055711;28;20081;-50
2022/02/07 08:37:52;;;;;;;8.45;1.27;;;;;;;3.86;77.37;100555.88;5046227;28;20061;-50
2022/02/07 08:40:19;;;;;;;5.47;1.15;;;;;;;3.90;77.68;100551.78;5059135;28;20028;-51
2022/02/07 08:42:45;;;;;;;3.80;1.15;;;;;;;3.96;77.64;100558.09;5053146;28;20036;-49
2022/02/07 08:45:12;;;;;;;3.75;1.50;;;;;;;3.94;77.82;100560.91;5054215;28;20020;-49
2022/02/07 08:47:38;;;;;;;5.38;0.98;;;;;;;3.99;77.60;100562.16;5054974;28;20343;-48
2022/02/07 08:50:06;;;;;;;7.15;0.90;;;;;;;4.07;77.70;100575.16;5051230;28;20033;-48
2022/02/07 08:52:32;;;;;;;6.72;1.10;;;;;;;4.11;77.82;100587.78;5050742;28;20027;-50
2022/02/07 08:54:58;;;;;;;9.07;1.00;;;;;;;4.12;77.75;100581.47;5049969;28;20235;-50
2022/02/07 08:57:30;;;;;;;7.28;1.10;;;;;;;4.22;77.40;100594.28;5057215;28;20062;-49
2022/02/07 09:00:22;;;;;;;8.02;1.73;;;;;;;4.18;77.47;100603.69;5049223;28;20314;-48
2022/02/07 09:08:07;;;;;;;7.35;1.42;;;;;;;4.06;79.02;100626.56;5055216;28;20171;-49
2022/02/07 09:10:32;;;;;;;6.30;1.08;;;;;;;4.13;78.49;100638.81;5062141;28;20066;-48
2022/02/07 09:12:58;;;;;;;7.28;1.70;;;;;;;3.92;80.05;100637.19;5044398;28;20040;-50
2022/02/07 09:15:41;;;;;;;7.90;1.60;;;;;;;4.00;79.67;100641.47;5051308;28;20406;-50
2022/02/07 09:18:10;;;;;;;6.38;1.20;;;;;;;3.94;80.41;100648.41;5049999;28;20104;-49
2022/02/07 09:20:37;;;;;;;11.63;1.55;;;;;;;3.89;80.37;100650.06;5050006;28;20107;-48
2022/02/07 09:23:05;;;;;;;9.05;1.30;;;;;;;3.85;80.10;100647.00;5047131;28;20037;-50
2022/02/07 09:25:31;;;;;;;7.53;1.15;;;;;;;3.91;80.58;100640.06;5055700;28;20420;-49
2022/02/07 09:27:57;;;;;;;2.92;0.90;;;;;;;3.98;80.46;100645.34;5051428;28;20079;-50
2022/02/07 09:30:22;;;;;;;5.53;1.17;;;;;;;4.04;80.27;100650.63;5054853;28;20021;-51
2022/02/07 09:32:48;;;;;;;4.13;1.02;;;;;;;4.07;80.03;100649.41;5051805;28;20024;-50
2022/02/07 09:35:14;;;;;;;9.27;1.20;;;;;;;4.14;79.57;100651.03;5047742;28;20024;-49
2022/02/07 09:37:40;;;;;;;4.85;1.08;;;;;;;4.28;79.15;100659.75;5045246;28;20032;-48
2022/02/07 09:40:07;;;;;;;5.22;1.17;;;;;;;4.35;78.99;100670.34;5054570;28;20025;-49
2022/02/07 09:42:34;;;;;;;5.05;1.10;;;;;;;4.35;78.46;100678.31;5061455;28;20043;-50
2022/02/07 09:45:15;;;;;;;6.60;1.77;;;;;;;4.36;78.58;100675.44;5055062;28;20694;-50
2022/02/07 09:47:41;;;;;;;8.07;1.73;;;;;;;4.34;78.17;100674.84;5057503;28;20463;-48
2022/02/07 09:50:07;;;;;;;9.95;1.60;;;;;;;4.44;78.04;100675.19;5063403;28;20032;-53
2022/02/07 09:52:34;;;;;;;6.22;1.30;;;;;;;4.45;77.59;100700.72;5064096;28;20017;-50
2022/02/07 09:55:00;;;;;;;5.97;1.08;;;;;;;4.50;77.02;100692.16;5055201;28;20044;-50
2022/02/07 09:57:26;;;;;;;4.93;1.38;;;;;;;4.53;77.05;100695.19;5064946;28;20483;-52
2022/02/07 09:59:53;;;;;;;6.93;1.35;;;;;;;4.54;76.48;100710.06;5061666;28;20048;-51
2022/02/07 10:02:37;;;;;;;9.27;1.27;;;;;;;4.64;76.64;100709.63;5054115;28;20025;-50
2022/02/07 10:05:08;;;;;;;10.13;1.67;;;;;;;4.72;76.46;100700.63;5046357;28;20112;-50
2022/02/07 10:07:58;;;;;;;6.63;1.55;;;;;;;4.72;75.88;100729.81;5047068;28;20582;-49
2022/02/07 10:15:32;;;;;;;5.38;1.80;;;;;;;4.87;75.42;100735.69;5061759;28;20471;-50
2022/02/07 10:18:35;;;;;;;10.48;1.70;;;;;;;4.94;75.18;100735.66;5057128;28;20032;-49
2022/02/07 10:40:20;;;;;;;9.20;1.35;;;;;;;5.16;72.76;100804.19;5052027;28;20031;-51
2022/02/07 10:45:32;;;;;;;7.05;1.67;;;;;;;5.30;72.40;100804.13;5049721;28;20129;-51
2022/02/07 10:47:59;;;;;;;14.90;1.85;;;;;;;5.33;72.28;100814.31;5052305;28;20057;-50
2022/02/07 10:50:24;;;;;;;13.77;3.05;;;;;;;5.35;72.17;100804.31;5054126;28;20100;-49
2022/02/07 10:52:59;;;;;;;9.05;2.50;;;;;;;5.31;71.32;100821.69;5058925;28;20154;-49
2022/02/07 10:55:35;;;;;;;9.13;1.67;;;;;;;5.54;72.31;100813.19;5053484;28;20074;-49
2022/02/07 10:58:05;;;;;;;11.73;2.42;;;;;;;5.60;71.38;100837.09;5052689;28;20417;-51
2022/02/07 11:00:40;;;;;;;12.50;2.35;;;;;;;5.70;71.39;100818.00;5052498;28;20471;-50
2022/02/07 11:03:20;;;;;;;7.93;2.03;;;;;;;5.64;70.24;100838.28;5053793;28;20032;-50
2022/02/07 11:05:50;;;;;;;10.50;2.08;;;;;;;5.66;70.71;100835.41;5053021;28;20052;-51
2022/02/07 11:08:30;;;;;;;8.50;3.13;;;;;;;5.71;71.15;100841.72;5070988;22;20554;-48
2022/02/07 11:13:57;;;;;;;9.32;1.60;;;;;;;5.61;69.88;100853.84;5062317;28;20397;-48
2022/02/07 11:19:06;;;;;;;6.80;1.60;;;;;;;5.81;70.47;100864.38;5053299;28;20086;-48
2022/02/07 11:24:31;;;;;;;7.72;2.13;;;;;;;5.78;69.61;100894.88;5054395;28;21047;-48
2022/02/07 11:27:49;;;;;;;16.13;3.80;;;;;;;5.82;69.24;100908.53;5049243;28;20036;-48
2022/02/07 11:30:17;;;;;;;8.88;2.47;;;;;;;5.87;69.93;100898.91;5050752;28;20120;-48
2022/02/07 11:32:47;;;;;;;15.05;2.72;;;;;;;5.84;69.39;100912.63;5056053;28;20266;-48
2022/02/07 11:35:28;;;;;;;9.43;2.65;;;;;;;5.81;68.59;100914.91;5052346;28;20029;-50
2022/02/07 11:38:00;;;;;;;12.80;2.05;;;;;;;5.83;68.77;100926.13;5055690;28;20024;-48
2022/02/07 11:40:48;;;;;;;14.27;2.58;;;;;;;5.61;67.09;100929.09;5049660;28;20114;-48
2022/02/07 11:43:16;;;;;;;13.77;2.83;;;;;;;5.80;68.26;100929.22;5051992;28;20498;-48
2022/02/07 11:45:50;;;;;;;13.32;1.95;;;;;;;5.79;68.33;100931.06;5053266;28;20310;-48
2022/02/07 11:48:40;;;;;;;12.02;1.98;;;;;;;5.80;67.71;100934.53;5056547;28;20028;-48
2022/02/07 11:51:18;;;;;;;15.77;2.15;;;;;;;5.81;68.23;100946.81;5053814;28;20763;-48
2022/02/07 11:53:48;;;;;;;12.48;1.90;;;;;;;5.91;68.20;100947.19;5056101;28;20078;-48
2022/02/07 11:56:18;;;;;;;20.05;2.70;;;;;;;5.92;67.25;100949.63;5056184;28;20470;-48
2022/02/07 11:58:49;;;;;;;16.48;1.70;;;;;;;5.98;67.57;100948.78;5051469;28;20025;-48
2022/02/07 12:01:24;;;;;;;13.20;2.60;;;;;;;6.02;66.91;100951.84;5050113;28;20029;-48
2022/02/07 12:03:53;;;;;;;9.32;2.28;;;;;;;6.02;65.87;100954.50;5049023;28;20112;-48
2022/02/07 12:06:24;;;;;;;8.90;2.25;;;;;;;6.14;66.73;100973.28;5051725;28;20024;-49
2022/02/07 12:08:49;;;;;;;12.15;2.13;;;;;;;6.19;65.71;100963.59;5047752;28;20025;-48
2022/02/07 12:11:16;;;;;;;9.23;1.73;;;;;;;6.33;66.39;100951.84;5052735;28;20032;-50
2022/02/07 12:13:43;;;;;;;13.07;3.03;;;;;;;6.46;65.25;100963.44;5050924;28;20028;-49
2022/02/07 12:16:10;;;;;;;11.13;2.50;;;;;;;6.43;63.62;100970.00;5053324;28;20025;-48
2022/02/07 12:18:36;;;;;;;22.45;2.90;;;;;;;6.44;63.67;100984.94;5053766;28;20389;-48
2022/02/07 12:21:24;;;;;;;12.32;2.05;;;;;;;6.44;63.11;100994.78;5052187;28;20033;-48
2022/02/07 12:23:54;;;;;;;12.95;2.53;;;;;;;6.54;62.36;101006.59;5048427;28;20382;-48
2022/02/07 12:26:20;;;;;;;8.40;2.55;;;;;;;6.68;62.60;101006.50;5051072;28;20031;-48
2022/02/07 12:28:49;;;;;;;7.13;1.88;;;;;;;6.55;61.70;101026.03;5050591;28;20382;-48
2022/02/07 12:31:21;;;;;;;13.20;2.00;;;;;;;6.64;62.48;101030.91;5049796;28;20070;-48
2022/02/07 12:34:03;;;;;;;13.63;2.85;;;;;;;6.63;61.59;101037.22;5045453;28;20182;-49
2022/02/07 12:36:34;;;;;;;9.43;2.35;;;;;;;6.58;61.78;101029.09;5051689;28;20115;-48
2022/02/07 12:39:04;;;;;;;12.60;2.70;;;;;;;6.48;61.67;101052.72;5053732;28;20029;-48
2022/02/07 12:41:31;;;;;;;10.27;2.33;;;;;;;6.38;60.76;101068.31;5050393;28;20143;-48
2022/02/07 12:43:58;;;;;;;12.77;2.17;;;;;;;6.65;60.52;101053.84;5051442;28;20382;-48
2022/02/07 12:46:27;;;;;;;10.55;2.22;;;;;;;7.06;59.41;101063.16;5055428;28;20143;-48
2022/02/07 12:51:25;;;;;;;12.98;2.67;;;;;;;6.66;58.55;101091.94;5049444;28;20056;-48
2022/02/07 12:53:52;;;;;;;8.65;2.22;;;;;;;6.51;58.88;101094.06;5048224;28;20021;-48
2022/02/07 12:56:18;;;;;;;10.38;2.90;;;;;;;6.58;59.83;101092.97;5046663;28;20501;-50
2022/02/07 12:58:46;;;;;;;12.30;3.40;;;;;;;6.62;58.83;101088.84;5048939;28;20074;-48
2022/02/07 13:01:19;;;;;;;15.65;3.88;;;;;;;6.50;57.13;101093.22;5047057;28;20060;-48
2022/02/07 13:04:00;;;;;;;9.88;2.13;;;;;;;6.43;58.14;101092.44;5047847;28;20028;-48
2022/02/07 13:06:33;;;;;;;10.02;2.22;;;;;;;6.34;58.37;101094.53;5048363;28;20102;-48
2022/02/07 13:09:02;;;;;;;16.13;2.47;;;;;;;6.40;60.20;101092.88;5048642;28;20044;-48
2022/02/07 13:11:32;;;;;;;13.75;3.47;;;;;;;6.44;60.15;101103.91;5057600;28;20351;-49
2022/02/07 13:13:59;;;;;;;11.25;2.88;;;;;;;6.71;59.62;101108.06;5045829;28;20035;-50
2022/02/07 13:16:30;;;;;;;10.85;2.38;;;;;;;6.82;57.89;101117.22;5046270;28;20428;-49
2022/02/07 13:19:07;;;;;;;15.38;3.00;;;;;;;6.86;57.76;101121.91;5048208;28;20029;-47
2022/02/07 13:21:39;;;;;;;13.77;2.50;;;;;;;6.88;57.38;101130.50;5050457;28;20033;-48
2022/02/07 13:24:14;;;;;;;11.52;2.22;;;;;;;6.76;56.96;101132.19;5050101;28;20058;-49
2022/02/07 13:26:51;;;;;;;11.80;2.55;;;;;;;6.58;56.10;101156.88;5050470;28;20025;-50
2022/02/07 13:29:22;;;;;;;11.30;2.58;;;;;;;6.51;56.78;101148.09;5047826;28;20111;-48
2022/02/07 13:31:58;;;;;;;17.08;3.28;;;;;;;6.53;57.87;101153.22;5051784;28;20493;-48
2022/02/07 13:34:30;;;;;;;14.48;2.95;;;;;;;6.42;57.77;101154.69;5047786;28;20056;-50
2022/02/07 13:37:15;;;;;;;7.68;2.13;;;;;;;6.31;57.10;101158.00;5049746;28;20598;-48
2022/02/07 13:40:02;;;;;;;19.85;3.85;;;;;;;6.41;58.21;101174.34;5047411;28;20143;-48
2022/02/07 13:42:34;;;;;;;11.23;2.30;;;;;;;6.48;58.57;101195.63;5048105;28;20112;-48
2022/02/07 13:45:06;;;;;;;16.00;3.65;;;;;;;6.48;58.69;101185.81;5052758;28;20029;-48
2022/02/07 13:47:32;;;;;;;13.00;2.70;;;;;;;6.50;59.00;101191.72;5047593;28;20441;-48
2022/02/07 13:50:07;;;;;;;16.50;2.63;;;;;;;6.48;58.47;101196.44;5049875;28;20118;-48
2022/02/07 13:52:53;;;;;;;15.43;2.90;;;;;;;6.42;57.39;101199.13;5047363;28;20036;-48
2022/02/07 13:55:30;;;;;;;11.05;2.65;;;;;;;6.38;58.10;101211.22;5049865;28;20112;-48
2022/02/07 13:58:18;;;;;;;7.00;2.00;;;;;;;6.22;57.38;101210.63;5046964;28;20075;-49
2022/02/07 14:00:49;;;;;;;12.60;2.58;;;;;;;6.28;58.25;101224.94;5054556;28;20111;-50
2022/02/07 14:03:26;;;;;;;10.82;3.08;;;;;;;6.26;58.74;101238.44;5049948;28;20029;-48
2022/02/07 14:05:55;;;;;;;15.63;3.15;;;;;;;6.25;58.90;101242.13;5045090;28;20032;-48
2022/02/07 14:08:29;;;;;;;11.55;3.00;;;;;;;6.15;57.47;101246.25;5046595;28;20029;-49